This is the latest recevied weather packets stored in our database for station/object E24TVS-1. If no packets are shown the sender has not sent any weather packets the latest 10 day(s).
| Time | Temp. | Humidity | Pressure | Rain* | Wind** | Luminosity | Snow |
|---|---|---|---|---|---|---|---|
| 1777846045 | 27.22° C | 77% | 990 hPa | - | - | 0 W/m² | - |
| 1777845422 | 27.22° C | 76% | 990 hPa | - | - | 0 W/m² | - |
| 1777844800 | 27.22° C | 75% | 990 hPa | - | - | 0 W/m² | - |
| 1777844178 | 27.22° C | 76% | 990 hPa | - | - | 0 W/m² | - |
| 1777843555 | 27.78° C | 74% | 990 hPa | - | - | 0 W/m² | - |
| 1777842933 | 27.78° C | 74% | 990 hPa | - | - | 0 W/m² | - |
| 1777842310 | 28.33° C | 72% | 989 hPa | - | - | 0 W/m² | - |
| 1777841687 | 28.33° C | 73% | 989 hPa | - | - | 0 W/m² | - |
| 1777841064 | 28.33° C | 73% | 989 hPa | - | - | 0 W/m² | - |
| 1777840442 | 28.33° C | 74% | 989 hPa | - | - | 0 W/m² | - |
| 1777839819 | 28.89° C | 70% | 989 hPa | - | - | 0 W/m² | - |
| 1777839197 | 30° C | 68% | 989 hPa | - | - | 0 W/m² | - |
| 1777838574 | 29.44° C | 69% | 989 hPa | - | - | 0 W/m² | - |
| 1777837952 | 28.89° C | 72% | 989 hPa | - | - | 0 W/m² | - |
| 1777837330 | 28.89° C | 70% | 989 hPa | - | - | 0 W/m² | - |
| 1777836707 | 30° C | 67% | 989 hPa | - | - | 0 W/m² | - |
| 1777836084 | 30.56° C | 62% | 989 hPa | - | - | 0 W/m² | - |
| 1777835462 | 30.56° C | 61% | 989 hPa | - | - | 0 W/m² | - |
| 1777834840 | 30.56° C | 62% | 989 hPa | - | - | 0 W/m² | - |
| 1777834217 | 29.44° C | 64% | 989 hPa | - | - | 0 W/m² | - |
| 1777833594 | 29.44° C | 64% | 989 hPa | - | - | 0 W/m² | - |
| 1777832971 | 29.44° C | 64% | 989 hPa | - | - | 0 W/m² | - |
| 1777832348 | 28.89° C | 64% | 989 hPa | - | - | 0 W/m² | - |
| 1777831725 | 29.44° C | 63% | 990 hPa | - | - | 0 W/m² | - |
| 1777831103 | 29.44° C | 63% | 990 hPa | - | - | 0 W/m² | - |
* Rain since midnight (hover to see other rain measurements)
** Current wind speed in m/s (hover to see current wind gust speed)